Time;durP1;ratioP1;P1;durP2;ratioP2;P2;SDS_P1;SDS_P2;PMS_P1;PMS_P2;Temp;Humidity;BMP_temperature;BMP_pressure;BME280_temperature;BME280_humidity;BME280_pressure;Samples;Min_cycle;Max_cycle;Signal;HPM_P1;HPM_P2
2021/11/29 00:01:15;;;;;;;10.32;4.13;;;3.70;99.90;;;;;;4172285;28;20028;-64
2021/11/29 00:03:17;;;;;;;10.02;4.78;;;3.70;99.90;;;;;;4176946;28;20039;-64
2021/11/29 00:05:20;;;;;;;9.30;4.80;;;3.70;99.90;;;;;;4172121;28;20437;-64
2021/11/29 00:07:21;;;;;;;8.85;4.55;;;3.60;99.90;;;;;;4168059;28;20037;-64
2021/11/29 00:09:21;;;;;;;9.82;4.43;;;3.50;99.90;;;;;;4170451;28;20167;-63
2021/11/29 00:11:22;;;;;;;8.93;4.32;;;3.40;99.90;;;;;;4175845;28;20032;-64
2021/11/29 00:13:23;;;;;;;9.65;4.97;;;3.40;99.90;;;;;;4172293;28;20033;-64
2021/11/29 00:15:24;;;;;;;10.45;4.93;;;3.40;99.90;;;;;;4167144;28;20033;-64
2021/11/29 00:17:25;;;;;;;9.82;4.28;;;3.40;99.90;;;;;;4167483;28;20455;-63
2021/11/29 00:19:25;;;;;;;10.68;4.70;;;3.50;99.90;;;;;;4175787;28;20032;-64
2021/11/29 00:21:26;;;;;;;8.10;4.55;;;3.40;99.90;;;;;;4168996;28;20030;-64
2021/11/29 00:23:27;;;;;;;9.48;4.55;;;3.30;99.90;;;;;;4169810;28;20079;-64
2021/11/29 00:25:28;;;;;;;10.73;4.38;;;3.30;99.90;;;;;;4174820;28;20061;-63
2021/11/29 00:27:28;;;;;;;7.07;4.05;;;3.30;99.90;;;;;;4169084;28;20090;-63
2021/11/29 00:29:29;;;;;;;8.80;4.40;;;3.30;99.90;;;;;;4175336;28;20029;-63
2021/11/29 00:31:29;;;;;;;8.98;4.70;;;3.20;99.90;;;;;;4171464;28;20036;-63
2021/11/29 00:33:30;;;;;;;9.18;4.90;;;3.30;99.90;;;;;;4170280;28;20398;-64
2021/11/29 00:35:31;;;;;;;10.05;4.60;;;3.20;99.90;;;;;;4171877;28;20036;-64
2021/11/29 00:37:31;;;;;;;13.68;4.40;;;3.20;99.90;;;;;;4169497;28;20499;-63
2021/11/29 00:39:32;;;;;;;12.18;4.30;;;3.20;99.90;;;;;;4174495;28;20423;-64
2021/11/29 00:41:33;;;;;;;10.75;4.43;;;3.30;99.90;;;;;;4174823;28;20403;-64
2021/11/29 00:43:34;;;;;;;9.88;4.72;;;3.20;99.90;;;;;;4169634;28;20035;-64
2021/11/29 00:45:35;;;;;;;8.75;4.40;;;3.20;99.90;;;;;;4169356;28;20090;-63
2021/11/29 00:47:36;;;;;;;10.25;4.63;;;3.10;99.90;;;;;;4168232;28;20112;-63
2021/11/29 00:49:36;;;;;;;7.15;4.30;;;3.10;99.90;;;;;;4175560;28;20048;-63
2021/11/29 00:51:37;;;;;;;8.75;4.63;;;3.00;99.90;;;;;;4174868;28;20036;-63
2021/11/29 00:53:38;;;;;;;10.20;5.15;;;3.00;99.90;;;;;;4173173;28;20047;-64
2021/11/29 00:55:39;;;;;;;9.00;4.57;;;3.00;99.90;;;;;;4176401;28;20037;-63
2021/11/29 00:57:41;;;;;;;12.13;4.68;;;2.90;99.90;;;;;;4172554;28;20167;-63
2021/11/29 00:59:46;;;;;;;8.85;4.53;;;2.90;99.90;;;;;;4175239;28;20021;-63
2021/11/29 01:01:47;;;;;;;12.07;4.50;;;2.90;99.90;;;;;;4179569;28;20025;-63
2021/11/29 01:03:47;;;;;;;8.90;4.05;;;2.80;99.90;;;;;;4178917;28;20040;-64
2021/11/29 01:05:48;;;;;;;14.07;4.45;;;2.90;99.90;;;;;;4171368;28;20029;-63
2021/11/29 01:07:49;;;;;;;9.90;4.57;;;2.80;99.90;;;;;;4178286;28;20037;-63
2021/11/29 01:09:50;;;;;;;10.95;4.70;;;2.80;99.90;;;;;;4175359;28;20029;-63
2021/11/29 01:11:50;;;;;;;7.72;3.63;;;2.80;99.90;;;;;;4178256;28;20055;-63
2021/11/29 01:13:51;;;;;;;7.88;4.35;;;2.80;99.90;;;;;;4172722;28;20436;-63
2021/11/29 01:15:52;;;;;;;10.27;4.50;;;2.90;99.90;;;;;;4172177;28;20037;-64
2021/11/29 01:17:53;;;;;;;11.50;4.65;;;2.90;99.90;;;;;;4172867;28;20052;-63
2021/11/29 01:19:53;;;;;;;7.63;3.45;;;2.90;99.90;;;;;;4176775;28;20096;-63
2021/11/29 01:21:54;;;;;;;7.43;3.85;;;2.90;99.90;;;;;;4174047;28;20037;-63
2021/11/29 01:23:54;;;;;;;9.18;4.78;;;2.90;99.90;;;;;;4172969;28;20100;-64
2021/11/29 01:25:55;;;;;;;8.98;4.35;;;2.80;99.90;;;;;;4176694;28;20472;-63
2021/11/29 01:27:56;;;;;;;12.82;5.10;;;2.80;99.90;;;;;;4172392;28;20041;-63
2021/11/29 01:29:56;;;;;;;7.90;4.22;;;2.80;99.90;;;;;;4174764;28;20029;-63
2021/11/29 01:31:57;;;;;;;8.57;3.85;;;2.80;99.90;;;;;;4178470;28;20441;-63
2021/11/29 01:33:57;;;;;;;10.52;4.78;;;2.80;99.90;;;;;;4172712;28;20056;-63
2021/11/29 01:35:58;;;;;;;10.20;3.88;;;2.80;99.90;;;;;;4172033;28;20511;-63
2021/11/29 01:37:59;;;;;;;7.45;3.72;;;2.70;99.90;;;;;;4172510;28;20076;-63
2021/11/29 01:39:59;;;;;;;8.43;3.63;;;2.70;99.90;;;;;;4176219;28;20033;-63
2021/11/29 01:42:00;;;;;;;13.50;4.97;;;2.70;99.90;;;;;;4174128;28;20033;-63
2021/11/29 01:44:01;;;;;;;8.57;3.88;;;2.80;99.90;;;;;;4172197;28;20084;-63
2021/11/29 01:46:02;;;;;;;11.20;4.50;;;2.80;99.90;;;;;;4173365;28;20100;-63
2021/11/29 01:48:02;;;;;;;7.63;4.18;;;2.70;99.90;;;;;;4174869;28;20043;-63
2021/11/29 01:50:04;;;;;;;6.68;3.75;;;2.80;99.90;;;;;;4171927;28;20038;-63
2021/11/29 01:52:05;;;;;;;8.80;4.10;;;2.70;99.90;;;;;;4165622;28;20043;-63
2021/11/29 01:54:06;;;;;;;9.95;4.07;;;2.70;99.90;;;;;;4177552;28;20040;-63
2021/11/29 01:56:07;;;;;;;14.68;3.70;;;2.70;99.90;;;;;;4174806;28;20041;-63
2021/11/29 01:58:07;;;;;;;9.23;3.95;;;2.80;99.90;;;;;;4172074;28;20396;-63
2021/11/29 02:00:14;;;;;;;11.68;4.07;;;2.80;99.90;;;;;;4171565;28;20468;-67
2021/11/29 02:02:14;;;;;;;8.07;3.65;;;2.80;99.90;;;;;;4172026;28;20029;-63
2021/11/29 02:04:15;;;;;;;6.75;3.92;;;2.80;99.90;;;;;;4180587;28;20056;-63
2021/11/29 02:06:16;;;;;;;7.65;3.65;;;2.80;99.90;;;;;;4173780;28;20074;-63
2021/11/29 02:08:17;;;;;;;7.80;3.70;;;2.70;99.90;;;;;;4172559;28;20045;-63
2021/11/29 02:10:21;;;;;;;4.93;3.20;;;2.80;99.90;;;;;;4178793;28;20463;-63
2021/11/29 02:12:22;;;;;;;7.65;3.53;;;2.80;99.90;;;;;;4172897;28;20112;-63
2021/11/29 02:14:23;;;;;;;8.52;3.80;;;2.80;99.90;;;;;;4173184;28;20041;-63
2021/11/29 02:16:24;;;;;;;9.38;3.78;;;2.90;99.90;;;;;;4177664;28;20052;-63
2021/11/29 02:18:27;;;;;;;7.55;3.35;;;2.90;99.90;;;;;;4168217;28;20535;-63
2021/11/29 02:20:30;;;;;;;9.48;2.97;;;2.90;99.90;;;;;;4171521;28;20026;-63
2021/11/29 02:22:31;;;;;;;5.28;3.13;;;3.00;99.90;;;;;;4171375;28;20652;-63
2021/11/29 02:24:32;;;;;;;7.90;3.30;;;3.00;99.90;;;;;;4173204;28;20105;-63
2021/11/29 02:26:35;;;;;;;7.43;3.58;;;3.00;99.90;;;;;;4178660;28;20031;-63
2021/11/29 02:28:45;;;;;;;6.65;3.00;;;3.10;99.90;;;;;;4171242;28;20037;-63
2021/11/29 02:30:46;;;;;;;5.60;2.97;;;3.10;99.90;;;;;;4163142;28;20044;-63
2021/11/29 02:32:47;;;;;;;8.27;3.60;;;3.10;99.90;;;;;;4173245;28;20083;-63
2021/11/29 02:34:48;;;;;;;4.93;3.10;;;3.10;99.90;;;;;;4171821;28;20033;-63
2021/11/29 02:36:50;;;;;;;7.18;3.20;;;3.10;99.90;;;;;;4171056;28;20037;-63
2021/11/29 02:38:51;;;;;;;8.48;3.20;;;3.20;99.90;;;;;;4171724;28;20395;-63
2021/11/29 02:40:51;;;;;;;4.53;2.80;;;3.20;99.90;;;;;;4178917;28;20034;-63
2021/11/29 02:42:52;;;;;;;6.28;3.30;;;3.20;99.90;;;;;;4171718;28;20025;-63
2021/11/29 02:44:53;;;;;;;7.00;3.20;;;3.20;99.90;;;;;;4172412;28;20029;-63
2021/11/29 02:46:54;;;;;;;3.67;2.67;;;3.20;99.90;;;;;;4167155;28;20029;-63
2021/11/29 02:48:54;;;;;;;7.80;3.20;;;3.20;99.90;;;;;;4171407;28;20021;-63
2021/11/29 02:50:55;;;;;;;4.40;2.88;;;3.20;99.90;;;;;;4170812;28;20059;-63
2021/11/29 02:52:56;;;;;;;8.00;2.97;;;3.20;99.90;;;;;;4170993;28;20491;-64
2021/11/29 02:54:56;;;;;;;4.82;2.90;;;3.20;99.90;;;;;;4171247;28;20029;-63
2021/11/29 02:57:00;;;;;;;4.97;3.25;;;3.20;99.90;;;;;;4172996;28;20434;-63
2021/11/29 02:59:01;;;;;;;5.93;2.90;;;3.20;99.90;;;;;;4174452;28;20479;-63
2021/11/29 03:01:02;;;;;;;7.15;3.45;;;3.10;99.90;;;;;;4170559;28;20107;-63
2021/11/29 03:03:08;;;;;;;5.20;2.72;;;3.10;99.90;;;;;;4175048;28;20371;-63
2021/11/29 03:05:09;;;;;;;6.28;3.33;;;3.10;99.90;;;;;;4172726;28;20029;-65
2021/11/29 03:07:10;;;;;;;5.13;2.80;;;3.10;99.90;;;;;;4178163;28;20102;-63
2021/11/29 03:09:10;;;;;;;6.55;2.70;;;3.00;99.90;;;;;;4171297;28;20036;-63
2021/11/29 03:11:12;;;;;;;3.75;2.40;;;3.10;99.90;;;;;;4172640;28;20383;-63
2021/11/29 03:13:13;;;;;;;8.20;3.08;;;3.10;99.90;;;;;;4170631;28;20029;-63
2021/11/29 03:15:13;;;;;;;5.28;2.97;;;3.10;99.90;;;;;;4178074;28;20456;-63
2021/11/29 03:17:14;;;;;;;6.97;2.88;;;3.10;99.90;;;;;;4176416;28;20049;-63
2021/11/29 03:19:15;;;;;;;8.32;2.50;;;3.00;99.90;;;;;;4170781;28;20033;-63
2021/11/29 03:21:19;;;;;;;5.57;2.42;;;3.00;99.90;;;;;;4168508;28;20138;-63
2021/11/29 03:23:19;;;;;;;4.60;2.40;;;3.00;99.90;;;;;;4177368;28;20427;-63
2021/11/29 03:25:20;;;;;;;3.90;2.15;;;3.00;99.90;;;;;;4173970;28;20083;-63
2021/11/29 03:27:21;;;;;;;5.05;2.40;;;3.00;99.90;;;;;;4175933;28;20045;-63
2021/11/29 03:29:23;;;;;;;4.13;2.30;;;3.00;99.90;;;;;;4181689;28;20025;-63
2021/11/29 03:31:26;;;;;;;3.10;2.00;;;3.00;99.90;;;;;;4171982;28;20090;-64
2021/11/29 03:33:26;;;;;;;5.18;2.10;;;3.00;99.90;;;;;;4179379;28;20538;-63
2021/11/29 03:35:27;;;;;;;7.57;2.00;;;3.00;99.90;;;;;;4171605;28;20099;-63
2021/11/29 03:37:28;;;;;;;5.47;2.35;;;3.00;99.90;;;;;;4170486;28;20401;-63
2021/11/29 03:39:29;;;;;;;2.67;1.83;;;3.00;99.90;;;;;;4170451;28;20033;-63
2021/11/29 03:41:30;;;;;;;3.90;2.10;;;3.00;99.90;;;;;;4174374;28;20174;-63
2021/11/29 03:43:31;;;;;;;2.58;2.05;;;3.00;99.90;;;;;;4175789;28;20025;-63
2021/11/29 03:45:32;;;;;;;3.47;1.60;;;3.00;99.90;;;;;;4174827;28;20059;-63
2021/11/29 03:47:32;;;;;;;5.00;1.75;;;3.00;99.90;;;;;;4175292;28;20458;-63
2021/11/29 03:49:33;;;;;;;4.18;1.88;;;3.00;99.90;;;;;;4173964;28;20040;-63
2021/11/29 03:51:35;;;;;;;4.88;1.58;;;3.00;99.90;;;;;;4170006;28;20469;-63
2021/11/29 03:53:36;;;;;;;6.28;2.20;;;3.00;99.90;;;;;;4170364;28;20033;-63
2021/11/29 03:55:36;;;;;;;4.28;1.80;;;3.00;99.90;;;;;;4173790;28;20025;-63
2021/11/29 03:57:37;;;;;;;4.68;1.60;;;3.00;99.90;;;;;;4175629;28;20479;-63
2021/11/29 03:59:37;;;;;;;3.50;1.50;;;3.00;99.90;;;;;;4172677;28;20386;-63
2021/11/29 04:01:39;;;;;;;3.63;1.20;;;3.00;99.90;;;;;;4171350;28;20029;-63
2021/11/29 04:03:40;;;;;;;2.33;1.50;;;3.00;99.90;;;;;;4170528;28;20384;-63
2021/11/29 04:05:41;;;;;;;3.80;1.48;;;3.10;99.90;;;;;;4174735;28;20033;-63
2021/11/29 04:07:42;;;;;;;2.17;1.20;;;3.00;99.90;;;;;;4169668;28;20040;-63
2021/11/29 04:09:43;;;;;;;5.55;1.52;;;3.10;99.90;;;;;;4173563;28;20471;-63
2021/11/29 04:11:43;;;;;;;3.28;1.40;;;3.00;99.90;;;;;;4175753;28;20032;-63
2021/11/29 04:13:44;;;;;;;2.90;1.25;;;3.10;99.90;;;;;;4174775;28;20041;-63
2021/11/29 04:15:44;;;;;;;2.80;1.10;;;3.10;99.90;;;;;;4169739;28;20030;-63
2021/11/29 04:17:45;;;;;;;2.45;1.38;;;3.20;99.90;;;;;;4170152;28;20049;-63
2021/11/29 04:19:46;;;;;;;1.80;1.20;;;3.10;99.90;;;;;;4172280;28;20403;-64
2021/11/29 04:21:47;;;;;;;4.85;1.45;;;3.10;99.90;;;;;;4171113;28;20044;-63
2021/11/29 04:23:48;;;;;;;2.00;1.30;;;3.10;99.90;;;;;;4170026;28;20030;-63
2021/11/29 04:25:54;;;;;;;3.30;1.80;;;3.20;99.90;;;;;;4177455;28;20090;-63
2021/11/29 04:27:56;;;;;;;3.88;1.45;;;3.10;99.90;;;;;;4171373;28;20484;-63
2021/11/29 04:30:04;;;;;;;2.83;1.38;;;3.10;99.90;;;;;;4174590;28;20025;-63
2021/11/29 04:32:05;;;;;;;5.20;1.58;;;3.10;99.90;;;;;;4166560;28;20029;-63
2021/11/29 04:34:06;;;;;;;3.25;1.27;;;3.10;99.90;;;;;;4167072;28;20447;-63
2021/11/29 04:36:07;;;;;;;4.95;1.30;;;3.20;99.90;;;;;;4168752;28;20036;-63
2021/11/29 04:38:07;;;;;;;6.15;1.30;;;3.20;99.90;;;;;;4169838;28;20443;-63
2021/11/29 04:40:09;;;;;;;1.88;1.15;;;3.10;99.90;;;;;;4169117;28;20032;-64
2021/11/29 04:42:10;;;;;;;4.10;1.33;;;3.20;99.90;;;;;;4171855;28;20039;-63
2021/11/29 04:44:11;;;;;;;3.53;1.10;;;3.10;99.90;;;;;;4174709;28;20387;-63
2021/11/29 04:46:11;;;;;;;3.72;1.30;;;3.10;99.90;;;;;;4172977;28;20036;-63
2021/11/29 04:48:12;;;;;;;2.50;1.10;;;3.10;99.90;;;;;;4170817;28;20037;-63
2021/11/29 04:50:13;;;;;;;4.07;1.55;;;3.20;99.90;;;;;;4173900;28;20036;-63
2021/11/29 04:52:14;;;;;;;2.50;1.20;;;3.20;99.90;;;;;;4171053;28;20035;-63
2021/11/29 04:54:15;;;;;;;4.63;1.95;;;3.20;99.90;;;;;;4174152;28;20040;-63
2021/11/29 04:56:15;;;;;;;2.50;1.45;;;3.20;99.90;;;;;;4169080;28;20030;-63
2021/11/29 04:58:16;;;;;;;1.45;0.98;;;3.10;99.90;;;;;;4172471;28;20040;-63
2021/11/29 05:00:18;;;;;;;1.88;1.15;;;3.20;99.90;;;;;;4169291;28;20036;-64
2021/11/29 05:02:19;;;;;;;;;;;3.20;99.90;;;;;;4169638;28;20064;-63
2021/11/29 05:04:20;;;;;;;3.22;1.02;;;3.10;99.90;;;;;;4171660;28;20314;-63
2021/11/29 05:06:20;;;;;;;2.08;1.20;;;3.10;99.90;;;;;;4173891;28;20069;-63
2021/11/29 05:08:21;;;;;;;4.07;1.55;;;3.10;99.90;;;;;;4173218;28;20108;-63
2021/11/29 05:10:21;;;;;;;2.80;1.10;;;3.10;99.90;;;;;;4169071;28;20082;-63
2021/11/29 05:12:23;;;;;;;3.47;1.27;;;3.00;99.90;;;;;;4170094;28;20041;-63
2021/11/29 05:14:23;;;;;;;2.28;1.17;;;3.00;99.90;;;;;;4170352;28;20108;-63
2021/11/29 05:16:24;;;;;;;2.67;1.15;;;3.10;99.90;;;;;;4174307;28;20442;-63
2021/11/29 05:18:25;;;;;;;1.90;1.13;;;3.10;99.90;;;;;;4170758;28;20033;-63
2021/11/29 05:20:25;;;;;;;2.05;1.05;;;3.10;99.90;;;;;;4168732;28;20037;-63
2021/11/29 05:22:26;;;;;;;3.60;1.23;;;3.10;99.90;;;;;;4156599;28;20494;-64
2021/11/29 05:24:27;;;;;;;2.60;1.00;;;3.10;99.90;;;;;;4171192;28;20040;-63
2021/11/29 05:26:28;;;;;;;4.97;1.50;;;3.10;99.90;;;;;;4173404;28;20495;-63
2021/11/29 05:28:29;;;;;;;1.85;1.05;;;3.10;99.90;;;;;;4173677;28;20033;-63
2021/11/29 05:30:30;;;;;;;2.35;1.20;;;3.10;99.90;;;;;;4172889;28;20130;-63
2021/11/29 05:32:31;;;;;;;3.08;0.93;;;3.10;99.90;;;;;;4169670;28;20037;-63
2021/11/29 05:34:31;;;;;;;5.28;1.15;;;3.10;99.90;;;;;;4170024;28;20037;-63
2021/11/29 05:36:32;;;;;;;3.83;1.10;;;3.10;99.90;;;;;;4169455;28;20026;-63
2021/11/29 05:38:33;;;;;;;2.92;1.40;;;3.10;99.90;;;;;;4172376;28;20140;-63
2021/11/29 05:40:34;;;;;;;6.32;1.63;;;3.10;99.90;;;;;;4176373;28;20025;-63
2021/11/29 05:42:34;;;;;;;3.25;1.13;;;3.10;99.90;;;;;;4172874;28;20021;-63
2021/11/29 05:44:35;;;;;;;2.47;1.00;;;3.20;99.90;;;;;;4172265;28;20041;-63
2021/11/29 05:46:35;;;;;;;2.67;1.10;;;3.20;99.90;;;;;;4178620;28;20112;-63
2021/11/29 05:48:36;;;;;;;4.13;1.35;;;3.20;99.90;;;;;;4173821;28;20033;-63
2021/11/29 05:50:37;;;;;;;4.78;1.08;;;3.10;99.90;;;;;;4181281;28;20025;-63
2021/11/29 05:52:38;;;;;;;2.00;1.05;;;3.20;99.90;;;;;;4175262;28;20087;-63
2021/11/29 05:54:40;;;;;;;1.92;1.00;;;3.20;99.90;;;;;;4172855;28;20499;-63
2021/11/29 05:56:40;;;;;;;2.20;0.80;;;3.20;99.90;;;;;;4171734;28;20068;-63
2021/11/29 05:58:41;;;;;;;4.00;1.20;;;3.20;99.90;;;;;;4172325;28;20040;-63
2021/11/29 06:00:42;;;;;;;2.55;1.20;;;3.30;99.90;;;;;;4178401;28;20104;-63
2021/11/29 06:02:43;;;;;;;4.43;1.40;;;3.20;99.90;;;;;;4171746;28;20025;-63
2021/11/29 06:04:43;;;;;;;2.85;1.00;;;3.20;99.90;;;;;;4174432;28;20111;-63
2021/11/29 06:06:44;;;;;;;1.77;0.95;;;3.20;99.90;;;;;;4171571;28;20083;-63
2021/11/29 06:08:45;;;;;;;5.30;0.90;;;3.20;99.90;;;;;;4176401;28;20096;-63
2021/11/29 06:10:46;;;;;;;2.47;0.80;;;3.20;99.90;;;;;;4178118;28;20059;-63
2021/11/29 06:12:46;;;;;;;3.15;0.77;;;3.20;99.90;;;;;;4172086;28;20033;-63
2021/11/29 06:14:47;;;;;;;1.92;0.82;;;3.20;99.90;;;;;;4171786;28;20468;-63
2021/11/29 06:16:48;;;;;;;4.55;1.17;;;3.20;99.90;;;;;;4173706;28;20140;-63
2021/11/29 06:18:48;;;;;;;3.15;1.23;;;3.20;99.90;;;;;;4175673;28;20143;-63
2021/11/29 06:20:49;;;;;;;5.93;1.40;;;3.20;99.90;;;;;;4171888;28;20036;-63
2021/11/29 06:22:52;;;;;;;1.17;0.93;;;3.30;99.90;;;;;;4171882;28;20589;-63
2021/11/29 06:24:53;;;;;;;3.08;1.15;;;3.30;99.90;;;;;;4174221;28;20075;-63
2021/11/29 06:26:53;;;;;;;1.83;1.00;;;3.20;99.90;;;;;;4171223;28;20052;-63
2021/11/29 06:28:54;;;;;;;5.43;1.35;;;3.20;99.90;;;;;;4178088;28;20086;-63
2021/11/29 06:30:55;;;;;;;2.67;1.23;;;3.30;99.90;;;;;;4170749;28;20032;-63
2021/11/29 06:32:56;;;;;;;3.25;1.15;;;3.30;99.90;;;;;;4168953;28;20043;-63
2021/11/29 06:34:56;;;;;;;1.35;0.82;;;3.20;99.90;;;;;;4175039;28;20595;-63
2021/11/29 06:36:59;;;;;;;4.90;1.30;;;3.20;99.90;;;;;;4170732;28;20037;-63
2021/11/29 06:39:00;;;;;;;;;;;3.20;99.90;;;;;;4176757;28;20041;-63
2021/11/29 06:41:00;;;;;;;2.40;1.33;;;3.30;99.90;;;;;;4167159;28;19959;-63
2021/11/29 06:43:01;;;;;;;2.13;1.02;;;3.30;99.90;;;;;;4171703;28;20037;-63
2021/11/29 06:45:03;;;;;;;2.95;1.20;;;3.30;99.90;;;;;;4179866;28;20084;-64
2021/11/29 06:47:03;;;;;;;3.00;1.30;;;3.30;99.90;;;;;;4174640;28;20029;-63
2021/11/29 06:49:04;;;;;;;3.08;1.20;;;3.20;99.90;;;;;;4171241;28;20036;-63
2021/11/29 06:51:05;;;;;;;1.63;1.20;;;3.30;99.90;;;;;;4172619;28;20116;-63
2021/11/29 06:53:06;;;;;;;2.20;1.35;;;3.30;99.90;;;;;;4175538;28;20037;-63
2021/11/29 06:55:11;;;;;;;2.58;1.27;;;3.30;99.90;;;;;;4177126;28;20044;-64
2021/11/29 06:57:15;;;;;;;2.85;1.50;;;3.20;99.90;;;;;;4171115;28;20040;-63
2021/11/29 06:59:15;;;;;;;1.52;0.90;;;3.20;99.90;;;;;;4171290;28;20037;-63
2021/11/29 07:01:16;;;;;;;4.25;1.25;;;3.20;99.90;;;;;;4177627;28;20036;-63
2021/11/29 07:03:17;;;;;;;3.08;1.42;;;3.20;99.90;;;;;;4171253;28;20094;-63
2021/11/29 07:05:17;;;;;;;3.00;1.45;;;3.20;99.90;;;;;;4172545;28;20037;-63
2021/11/29 07:07:18;;;;;;;2.38;1.30;;;3.30;99.90;;;;;;4170989;28;20151;-63
2021/11/29 07:09:19;;;;;;;2.65;1.48;;;3.30;99.90;;;;;;4176593;28;20487;-63
2021/11/29 07:11:20;;;;;;;3.45;1.52;;;3.30;99.90;;;;;;4166786;28;20037;-63
2021/11/29 07:13:20;;;;;;;5.05;1.80;;;3.20;99.90;;;;;;4171030;28;20025;-63
2021/11/29 07:15:23;;;;;;;3.97;1.98;;;3.20;99.90;;;;;;4169856;28;20063;-64
2021/11/29 07:17:24;;;;;;;4.28;1.48;;;3.30;99.90;;;;;;4170786;28;20139;-64
2021/11/29 07:19:25;;;;;;;3.10;1.55;;;3.30;99.90;;;;;;4170529;28;20149;-64
2021/11/29 07:21:25;;;;;;;4.00;1.35;;;3.20;99.90;;;;;;4169780;28;20047;-64
2021/11/29 07:23:26;;;;;;;2.20;1.52;;;3.20;99.90;;;;;;4170958;28;20028;-64
2021/11/29 07:25:27;;;;;;;2.80;1.48;;;3.20;99.90;;;;;;4171290;28;20384;-64
2021/11/29 07:27:27;;;;;;;1.98;1.35;;;3.20;99.90;;;;;;4174933;28;20391;-64
2021/11/29 07:29:28;;;;;;;3.35;1.60;;;3.20;99.90;;;;;;4173092;28;20028;-64
2021/11/29 07:31:28;;;;;;;2.60;1.80;;;3.20;99.90;;;;;;4178390;28;20037;-64
2021/11/29 07:33:29;;;;;;;4.35;1.48;;;3.20;99.90;;;;;;4173098;28;20033;-64
2021/11/29 07:35:31;;;;;;;2.83;1.35;;;3.20;99.90;;;;;;4177609;28;20029;-64
2021/11/29 07:37:32;;;;;;;1.83;1.40;;;3.20;99.90;;;;;;4173350;28;20467;-64
2021/11/29 07:39:32;;;;;;;1.80;1.45;;;3.20;99.90;;;;;;4173926;28;20037;-64
2021/11/29 07:41:33;;;;;;;3.63;1.30;;;3.20;99.90;;;;;;4169889;28;20476;-64
2021/11/29 07:43:34;;;;;;;2.80;1.55;;;3.20;99.90;;;;;;4171860;28;20025;-64
2021/11/29 07:45:36;;;;;;;2.33;1.40;;;3.20;99.90;;;;;;4170160;28;20399;-64
2021/11/29 07:47:38;;;;;;;4.28;2.03;;;3.20;99.90;;;;;;4169940;28;20522;-64
2021/11/29 07:49:39;;;;;;;3.50;1.77;;;3.20;99.90;;;;;;4172977;28;20472;-64
2021/11/29 07:51:39;;;;;;;2.97;1.45;;;3.20;99.90;;;;;;4173145;28;20328;-64
2021/11/29 07:53:40;;;;;;;2.60;1.50;;;3.20;99.90;;;;;;4170488;28;20041;-64
2021/11/29 07:55:41;;;;;;;3.67;1.75;;;3.20;99.90;;;;;;4175849;28;20035;-64
2021/11/29 07:57:42;;;;;;;3.67;1.75;;;3.30;99.90;;;;;;4170381;28;20033;-64
2021/11/29 07:59:43;;;;;;;2.10;1.48;;;3.20;99.90;;;;;;4162406;28;20075;-64
2021/11/29 08:01:44;;;;;;;5.38;1.85;;;3.20;99.90;;;;;;4171964;28;20029;-64
2021/11/29 08:03:45;;;;;;;2.10;1.25;;;3.20;99.90;;;;;;4173858;28;20044;-63
2021/11/29 08:05:45;;;;;;;4.60;2.08;;;3.30;99.90;;;;;;4169816;28;20388;-64
2021/11/29 08:07:47;;;;;;;4.00;1.75;;;3.30;99.90;;;;;;4174212;28;20066;-63
2021/11/29 08:09:48;;;;;;;2.55;1.30;;;3.50;99.90;;;;;;4168186;28;20032;-63
2021/11/29 08:11:48;;;;;;;4.15;1.50;;;3.70;99.90;;;;;;4162638;28;20053;-63
2021/11/29 08:13:49;;;;;;;1.23;1.13;;;3.80;99.90;;;;;;4170154;28;20498;-63
2021/11/29 08:15:50;;;;;;;3.58;1.38;;;3.90;99.90;;;;;;4169341;28;20387;-63
2021/11/29 08:17:50;;;;;;;2.55;1.30;;;4.00;99.90;;;;;;4172108;28;20063;-63
2021/11/29 08:19:52;;;;;;;5.10;1.43;;;4.00;99.90;;;;;;4170231;28;20050;-63
2021/11/29 08:21:53;;;;;;;4.28;1.40;;;3.90;99.90;;;;;;4154755;28;20507;-63
2021/11/29 08:23:53;;;;;;;5.50;1.52;;;3.90;99.90;;;;;;4172377;28;20452;-63
2021/11/29 08:25:54;;;;;;;2.08;1.13;;;3.90;99.90;;;;;;4179473;28;20025;-63
2021/11/29 08:27:55;;;;;;;2.95;1.48;;;3.80;99.90;;;;;;4173815;28;20381;-63
2021/11/29 08:29:55;;;;;;;5.78;1.90;;;3.80;99.90;;;;;;4174433;28;20036;-63
2021/11/29 08:31:56;;;;;;;5.32;1.33;;;3.80;99.90;;;;;;4159778;28;20427;-63
2021/11/29 08:33:57;;;;;;;3.40;1.30;;;3.70;99.90;;;;;;4172890;28;20025;-63
2021/11/29 08:35:57;;;;;;;3.85;1.40;;;3.70;99.90;;;;;;4175307;28;20067;-63
2021/11/29 08:37:58;;;;;;;2.40;1.50;;;3.70;99.90;;;;;;4169774;28;20138;-63
2021/11/29 08:39:59;;;;;;;3.40;1.30;;;3.60;99.90;;;;;;4169923;28;20535;-63
2021/11/29 08:42:00;;;;;;;2.05;1.13;;;3.60;99.90;;;;;;4173907;28;20041;-63
2021/11/29 08:44:03;;;;;;;2.88;1.40;;;3.60;99.90;;;;;;4169904;28;20042;-63
2021/11/29 08:46:04;;;;;;;3.03;1.45;;;3.60;99.90;;;;;;4172872;28;20036;-63
2021/11/29 08:48:06;;;;;;;3.65;1.30;;;3.70;99.90;;;;;;4173100;28;20029;-63
2021/11/29 08:50:09;;;;;;;1.98;1.20;;;3.70;99.90;;;;;;4172663;28;20535;-63
2021/11/29 08:52:10;;;;;;;2.50;1.42;;;3.60;99.90;;;;;;4169639;28;20021;-63
2021/11/29 08:54:13;;;;;;;5.07;1.55;;;3.60;99.90;;;;;;4175463;28;20059;-63
2021/11/29 08:56:14;;;;;;;6.20;1.60;;;3.60;99.90;;;;;;4169271;28;20155;-63
2021/11/29 08:58:15;;;;;;;1.88;1.20;;;3.70;99.90;;;;;;4168538;28;20035;-63
2021/11/29 09:00:17;;;;;;;8.77;1.60;;;3.70;99.90;;;;;;4171577;28;20065;-63
2021/11/29 09:02:18;;;;;;;3.08;1.63;;;3.70;99.90;;;;;;4169714;28;20030;-63
2021/11/29 09:04:19;;;;;;;5.20;1.58;;;3.70;99.90;;;;;;4175226;28;20037;-63
2021/11/29 09:06:20;;;;;;;5.00;1.60;;;3.70;99.90;;;;;;4168942;28;20098;-63
2021/11/29 09:08:21;;;;;;;2.65;1.25;;;3.70;99.90;;;;;;4172248;28;20049;-63
2021/11/29 09:10:23;;;;;;;5.60;1.52;;;3.80;99.90;;;;;;4168499;28;20045;-63
2021/11/29 09:12:24;;;;;;;3.25;1.30;;;3.80;99.90;;;;;;4178413;28;20104;-63
2021/11/29 09:14:25;;;;;;;3.25;1.60;;;3.80;99.90;;;;;;4170901;28;20029;-63
2021/11/29 09:16:27;;;;;;;4.40;1.58;;;3.80;99.90;;;;;;4176951;28;20400;-63
2021/11/29 09:18:28;;;;;;;5.40;1.55;;;3.80;99.90;;;;;;4178072;28;20040;-63
2021/11/29 09:20:30;;;;;;;4.82;1.80;;;3.80;99.90;;;;;;4173858;28;20033;-63
2021/11/29 09:22:30;;;;;;;5.13;1.80;;;3.90;99.90;;;;;;4173184;28;20075;-63
2021/11/29 09:24:31;;;;;;;6.85;1.70;;;3.90;99.90;;;;;;4176875;28;20021;-63
2021/11/29 09:26:32;;;;;;;9.10;1.92;;;3.90;99.90;;;;;;4177091;28;20495;-63
2021/11/29 09:28:32;;;;;;;4.63;1.58;;;3.80;99.90;;;;;;4178364;28;20032;-63
2021/11/29 09:30:33;;;;;;;5.28;2.05;;;3.80;99.90;;;;;;4174742;28;20028;-63
2021/11/29 09:32:37;;;;;;;7.55;1.98;;;3.90;99.90;;;;;;4172654;28;20448;-63
2021/11/29 09:34:38;;;;;;;5.32;1.38;;;3.90;99.90;;;;;;4173558;28;20041;-63
2021/11/29 09:36:39;;;;;;;7.40;1.80;;;4.00;99.90;;;;;;4177369;28;20029;-63
2021/11/29 09:38:39;;;;;;;5.50;2.72;;;4.00;99.90;;;;;;4172516;28;20044;-63
2021/11/29 09:40:42;;;;;;;5.20;2.10;;;4.00;99.90;;;;;;4176424;28;20499;-63
2021/11/29 09:42:42;;;;;;;4.88;1.40;;;4.00;99.90;;;;;;4173628;28;20422;-63
2021/11/29 09:44:43;;;;;;;4.55;1.42;;;4.10;99.90;;;;;;4172843;28;20108;-63
2021/11/29 09:46:45;;;;;;;2.90;1.67;;;4.10;99.90;;;;;;4177497;28;20032;-63
2021/11/29 09:48:46;;;;;;;6.03;1.80;;;4.10;99.90;;;;;;4169931;28;20039;-63
2021/11/29 09:50:53;;;;;;;6.40;2.10;;;4.10;99.90;;;;;;4177780;28;20484;-63
2021/11/29 09:52:55;;;;;;;5.90;1.90;;;4.10;99.90;;;;;;4174729;28;20485;-63
2021/11/29 09:54:55;;;;;;;3.90;1.48;;;4.10;99.90;;;;;;4176675;28;20491;-63
2021/11/29 09:56:56;;;;;;;8.60;1.80;;;4.20;99.90;;;;;;4171366;28;20025;-63
2021/11/29 09:58:58;;;;;;;4.07;1.80;;;4.20;99.90;;;;;;4172122;28;20033;-63
2021/11/29 10:01:02;;;;;;;3.50;1.63;;;4.20;99.90;;;;;;4166276;28;20419;-63
2021/11/29 10:03:05;;;;;;;4.38;1.70;;;4.20;99.90;;;;;;4171697;28;20037;-63
2021/11/29 10:05:06;;;;;;;5.80;1.90;;;4.30;99.90;;;;;;4171661;28;20369;-64
2021/11/29 10:07:06;;;;;;;4.90;1.63;;;4.30;99.90;;;;;;4176770;28;20035;-63
2021/11/29 10:09:30;;;;;;;5.03;1.20;;;4.30;99.90;;;;;;4177899;28;20483;-63
2021/11/29 10:11:31;;;;;;;4.78;1.77;;;4.30;99.90;;;;;;4161984;28;20039;-63
2021/11/29 10:13:47;;;;;;;3.10;1.20;;;4.40;99.90;;;;;;4172154;28;20064;-63
2021/11/29 10:15:49;;;;;;;3.55;1.65;;;4.40;99.90;;;;;;4164735;28;20040;-63
2021/11/29 10:18:00;;;;;;;6.07;1.58;;;4.40;99.90;;;;;;4172065;28;20045;-63
2021/11/29 10:20:00;;;;;;;3.53;1.30;;;4.50;99.90;;;;;;4175355;28;20061;-63
2021/11/29 10:22:19;;;;;;;4.60;1.52;;;4.50;99.90;;;;;;4175368;28;20953;-63
2021/11/29 10:24:22;;;;;;;6.03;1.80;;;4.40;99.90;;;;;;4172196;28;20061;-63
2021/11/29 10:26:29;;;;;;;3.50;1.65;;;4.50;99.90;;;;;;4171510;28;20029;-63
2021/11/29 10:28:39;;;;;;;4.93;1.60;;;4.50;99.90;;;;;;4177329;28;20112;-65
2021/11/29 10:30:39;;;;;;;6.95;1.92;;;4.60;99.90;;;;;;4169390;28;20030;-64
2021/11/29 10:32:43;;;;;;;4.63;1.90;;;4.60;99.90;;;;;;4176833;28;20030;-64
2021/11/29 10:34:44;;;;;;;3.10;1.65;;;4.70;99.90;;;;;;4178897;28;20033;-64
2021/11/29 10:36:47;;;;;;;5.03;1.60;;;4.70;99.90;;;;;;4171180;28;20029;-64
2021/11/29 10:38:56;;;;;;;3.60;1.60;;;4.70;99.90;;;;;;4174002;28;20029;-64
2021/11/29 10:40:57;;;;;;;5.57;1.40;;;4.80;99.90;;;;;;4176705;28;20036;-64